createdAt,value
2022-09-28T00:03:03.794Z,84.48
2022-09-28T00:08:05.622Z,84.42
2022-09-28T00:13:08.200Z,84.43
2022-09-28T00:18:10.491Z,84.36
2022-09-28T00:23:17.050Z,84.35
2022-09-28T00:28:18.991Z,84.68
2022-09-28T00:33:20.729Z,85.17
2022-09-28T00:38:25.545Z,85.29
2022-09-28T00:43:28.105Z,85.34
2022-09-28T00:48:34.097Z,85.27
2022-09-28T00:53:37.845Z,85.14
2022-09-28T00:58:44.334Z,85.05
2022-09-28T01:03:48.845Z,84.85
2022-09-28T01:08:54.388Z,84.82
2022-09-28T01:13:58.020Z,84.78
2022-09-28T01:19:35.379Z,84.47
2022-09-28T01:24:46.286Z,83.77
2022-09-28T01:30:04.678Z,83.45
2022-09-28T01:35:15.038Z,83.43
2022-09-28T01:40:26.328Z,83.51
2022-09-28T01:45:33.798Z,83.64
2022-09-28T01:50:54.363Z,83.70
2022-09-28T01:56:34.500Z,83.82
2022-09-28T02:01:59.537Z,83.86
2022-09-28T02:07:17.062Z,83.74
2022-09-28T02:12:37.419Z,83.40
2022-09-28T02:17:39.552Z,83.17
2022-09-28T02:22:47.666Z,83.01
2022-09-28T02:28:01.990Z,82.97
2022-09-28T02:33:11.725Z,82.98
2022-09-28T02:38:15.016Z,83.17
2022-09-28T02:55:01.641Z,84.47
2022-09-28T03:00:12.020Z,84.50
2022-09-28T03:05:45.517Z,84.41
2022-09-28T03:10:58.907Z,84.25
2022-09-28T03:16:19.408Z,84.18
2022-09-28T03:21:23.260Z,84.10
2022-09-28T03:26:25.303Z,83.90
2022-09-28T03:31:27.150Z,83.72
2022-09-28T03:36:29.168Z,83.49
2022-09-28T03:41:31.289Z,83.38
2022-09-28T03:46:33.134Z,83.41
2022-09-28T03:51:39.197Z,83.55
2022-09-28T03:56:41.120Z,83.78
2022-09-28T04:01:42.965Z,84.01
2022-09-28T04:06:45.357Z,84.14
2022-09-28T04:12:02.856Z,84.23
2022-09-28T04:17:07.226Z,84.27
2022-09-28T04:22:30.292Z,84.33
2022-09-28T04:28:04.397Z,84.41
2022-09-28T04:33:06.507Z,84.42
2022-09-28T04:38:08.516Z,84.35
2022-09-28T04:43:11.305Z,84.12
2022-09-28T04:48:13.156Z,83.88
2022-09-28T04:53:36.666Z,83.52
2022-09-28T04:58:40.591Z,83.54
2022-09-28T05:03:43.471Z,83.56
2022-09-28T05:09:01.638Z,83.43
2022-09-28T05:14:03.619Z,83.19
2022-09-28T05:19:06.508Z,83.10
2022-09-28T05:24:08.878Z,83.16
2022-09-28T05:29:19.313Z,83.52
2022-09-28T05:34:50.729Z,83.74
2022-09-28T05:39:59.443Z,83.83
2022-09-28T05:45:03.375Z,83.75
2022-09-28T05:50:11.823Z,83.44
2022-09-28T05:55:14.355Z,83.24
2022-09-28T06:00:17.129Z,83.07
2022-09-28T06:05:39.487Z,82.97
2022-09-28T06:11:02.633Z,82.44
2022-09-28T06:16:05.064Z,82.14
2022-09-28T06:21:10.814Z,82.01
2022-09-28T06:26:17.988Z,81.91
2022-09-28T06:31:23.839Z,81.92
2022-09-28T06:36:28.950Z,81.88
2022-09-28T06:41:31.079Z,81.73
2022-09-28T06:46:38.309Z,81.49
2022-09-28T06:52:08.807Z,80.89
2022-09-28T06:57:29.484Z,79.76
2022-09-28T07:02:32.046Z,78.82
2022-09-28T07:08:02.027Z,78.48
2022-09-28T07:13:47.117Z,78.38
2022-09-28T07:18:47.329Z,78.29
2022-09-28T07:23:53.822Z,78.09
2022-09-28T07:28:58.859Z,77.26
2022-09-28T07:34:13.083Z,75.52
2022-09-28T07:39:30.408Z,73.15
2022-09-28T07:44:32.300Z,71.90
2022-09-28T07:49:34.129Z,71.33
2022-09-28T07:54:52.144Z,71.07
2022-09-28T08:00:09.409Z,70.71
2022-09-28T08:05:18.547Z,68.51
2022-09-28T08:10:37.314Z,67.38
2022-09-28T08:15:54.319Z,66.26
2022-09-28T08:21:38.185Z,65.49
2022-09-28T08:26:40.126Z,65.61
2022-09-28T08:31:43.116Z,65.45
2022-09-28T08:37:11.156Z,65.51
2022-09-28T08:43:05.371Z,65.82
2022-09-28T08:48:56.903Z,64.20
2022-09-28T08:54:54.602Z,62.10
2022-09-28T09:00:11.562Z,60.76
2022-09-28T09:05:20.816Z,59.28
2022-09-28T09:10:50.809Z,58.23
2022-09-28T09:16:11.849Z,59.08
2022-09-28T09:21:37.880Z,58.65
2022-09-28T09:26:41.184Z,58.15
2022-09-28T09:32:21.517Z,56.44
2022-09-28T09:37:30.324Z,55.00
2022-09-28T09:43:17.394Z,56.31
2022-09-28T09:48:39.207Z,55.18
2022-09-28T09:53:48.653Z,54.72
2022-09-28T09:58:56.179Z,54.31
2022-09-28T10:04:18.152Z,55.48
2022-09-28T10:09:41.346Z,55.33
2022-09-28T10:14:56.434Z,54.67
2022-09-28T10:20:01.102Z,54.20
2022-09-28T10:25:19.977Z,53.41
2022-09-28T10:30:42.338Z,53.09
2022-09-28T10:35:49.078Z,53.02
2022-09-28T10:40:58.389Z,51.19
2022-09-28T10:46:14.563Z,50.82
2022-09-28T10:51:39.690Z,50.59
2022-09-28T10:56:42.922Z,50.91
2022-09-28T11:01:54.189Z,50.21
2022-09-28T11:12:20.666Z,49.11
2022-09-28T11:17:38.794Z,50.18
2022-09-28T11:22:42.367Z,49.48
2022-09-28T11:27:51.605Z,50.13
2022-09-28T11:33:03.099Z,51.09
2022-09-28T11:38:44.028Z,52.00
2022-09-28T11:44:40.177Z,52.39
2022-09-28T11:49:56.141Z,51.40
2022-09-28T11:55:06.555Z,49.51
2022-09-28T12:00:19.466Z,49.59
2022-09-28T12:05:51.697Z,50.27
2022-09-28T12:11:40.359Z,51.81
2022-09-28T12:17:06.686Z,52.29
2022-09-28T12:22:20.940Z,52.42
2022-09-28T12:27:53.560Z,51.55
2022-09-28T12:33:13.410Z,50.22
2022-09-28T12:38:26.231Z,50.04
2022-09-28T12:43:37.199Z,50.25
2022-09-28T12:49:47.294Z,49.80
2022-09-28T12:55:02.062Z,49.88
2022-09-28T13:00:05.801Z,49.64
2022-09-28T13:05:29.159Z,50.53
2022-09-28T13:10:40.516Z,51.46
2022-09-28T13:15:57.452Z,52.09
2022-09-28T13:21:36.769Z,52.84
2022-09-28T13:26:43.985Z,53.55
2022-09-28T13:32:03.218Z,54.38
2022-09-28T13:37:16.962Z,55.17
2022-09-28T13:42:37.710Z,56.00
2022-09-28T13:47:42.533Z,56.45
2022-09-28T13:53:23.516Z,57.04
2022-09-28T13:58:35.839Z,57.67
2022-09-28T14:03:55.048Z,58.50
2022-09-28T14:09:18.408Z,60.03
2022-09-28T14:14:46.512Z,60.99
2022-09-28T14:20:07.341Z,61.61
2022-09-28T14:25:32.567Z,62.66
2022-09-28T14:30:43.752Z,63.11
2022-09-28T14:36:02.236Z,63.12
2022-09-28T14:41:31.447Z,63.14
2022-09-28T14:46:45.690Z,63.95
2022-09-28T14:51:47.505Z,65.12
2022-09-28T14:56:52.911Z,65.77
2022-09-28T15:02:01.601Z,66.62
2022-09-28T15:07:03.442Z,67.72
2022-09-28T15:12:14.118Z,67.93
2022-09-28T15:17:21.429Z,68.60
2022-09-28T15:22:23.465Z,67.76
2022-09-28T15:27:32.969Z,67.84
2022-09-28T15:32:45.288Z,68.16
2022-09-28T15:37:52.344Z,68.81
2022-09-28T15:42:59.126Z,69.61
2022-09-28T15:48:24.580Z,70.53
2022-09-28T15:53:26.893Z,71.60
2022-09-28T15:58:29.083Z,72.16
2022-09-28T16:03:31.274Z,72.44
2022-09-28T16:08:33.013Z,72.71
2022-09-28T16:13:37.083Z,72.91
2022-09-28T16:18:40.482Z,73.04
2022-09-28T16:23:42.700Z,73.44
2022-09-28T16:28:48.878Z,73.85
2022-09-28T16:33:59.013Z,74.01
2022-09-28T16:39:00.849Z,74.29
2022-09-28T16:44:03.067Z,75.02
2022-09-28T16:49:08.457Z,75.57
2022-09-28T16:54:38.622Z,75.92
2022-09-28T16:59:40.790Z,76.07
2022-09-28T17:04:47.513Z,76.32
2022-09-28T17:09:49.544Z,76.73
2022-09-28T17:14:51.259Z,77.05
2022-09-28T17:19:53.168Z,77.11
2022-09-28T17:25:03.482Z,77.34
2022-09-28T17:30:06.968Z,78.20
2022-09-28T17:35:24.186Z,78.43
2022-09-28T17:40:29.430Z,78.19
2022-09-28T17:45:33.162Z,78.11
2022-09-28T17:50:36.149Z,78.04
2022-09-28T17:56:00.230Z,78.40
2022-09-28T18:01:21.157Z,78.86
2022-09-28T18:06:23.817Z,79.13
2022-09-28T18:11:26.113Z,78.70
2022-09-28T18:16:29.068Z,79.06
2022-09-28T18:21:34.070Z,79.64
2022-09-28T18:26:37.277Z,79.60
2022-09-28T18:31:39.120Z,79.60
2022-09-28T18:36:40.999Z,79.74
2022-09-28T18:41:45.165Z,79.75
2022-09-28T18:46:47.176Z,79.83
2022-09-28T18:51:49.430Z,79.61
2022-09-28T18:56:56.361Z,79.47
2022-09-28T19:01:59.581Z,79.55
2022-09-28T19:07:01.741Z,79.55
2022-09-28T19:12:03.668Z,79.90
2022-09-28T19:17:06.060Z,80.37
2022-09-28T19:22:07.814Z,80.91
2022-09-28T19:27:09.578Z,80.36
2022-09-28T19:32:12.841Z,80.79
2022-09-28T19:37:14.510Z,80.96
2022-09-28T19:42:16.390Z,82.02
2022-09-28T19:47:21.797Z,82.77
2022-09-28T19:52:23.692Z,82.94
2022-09-28T19:57:28.015Z,83.41
2022-09-28T20:02:30.014Z,84.17
2022-09-28T20:07:36.583Z,84.20
2022-09-28T20:12:38.934Z,84.03
2022-09-28T20:17:40.610Z,84.42
2022-09-28T20:22:43.994Z,84.67
2022-09-28T20:27:46.189Z,84.58
2022-09-28T20:32:49.743Z,84.41
2022-09-28T20:37:52.821Z,84.15
2022-09-28T20:42:54.893Z,83.72
2022-09-28T20:48:04.616Z,83.73
2022-09-28T20:53:06.346Z,83.62
2022-09-28T20:58:08.045Z,83.39
2022-09-28T21:03:09.909Z,83.50
2022-09-28T21:08:12.032Z,83.62
2022-09-28T21:13:13.867Z,83.64
2022-09-28T21:18:16.688Z,83.58
2022-09-28T21:23:24.580Z,83.44
2022-09-28T21:28:26.798Z,83.36
2022-09-28T21:33:28.728Z,83.45
2022-09-28T21:38:33.541Z,83.77
2022-09-28T21:43:36.041Z,84.13
2022-09-28T21:48:37.802Z,84.29
2022-09-28T21:53:39.800Z,84.12
2022-09-28T21:58:41.892Z,83.71
2022-09-28T22:03:47.962Z,83.17
2022-09-28T22:08:50.330Z,82.77
2022-09-28T22:13:54.108Z,82.46
2022-09-28T22:18:56.321Z,82.10
2022-09-28T22:24:01.203Z,81.92
2022-09-28T22:29:10.472Z,81.74
2022-09-28T22:34:12.401Z,81.64
2022-09-28T22:39:14.824Z,81.63
2022-09-28T22:44:16.650Z,81.61
2022-09-28T22:49:18.784Z,81.82
2022-09-28T22:54:21.560Z,81.82
2022-09-28T22:59:23.282Z,81.70
2022-09-28T23:04:25.208Z,81.84
2022-09-28T23:09:40.186Z,82.01
2022-09-28T23:14:55.533Z,81.83
2022-09-28T23:19:57.255Z,81.72
2022-09-28T23:24:59.122Z,82.01
2022-09-28T23:30:00.940Z,81.53
2022-09-28T23:35:18.873Z,81.85
2022-09-28T23:40:20.679Z,82.27
2022-09-28T23:45:22.559Z,82.69
2022-09-28T23:50:24.326Z,83.00
2022-09-28T23:55:26.067Z,83.07
